Portada
METAR-TAF:

METAR-TAF

Aeropuertos :

Jasper, Alabama, Estados Unidos

latitud: 33-54-07N, longitud: 087-18-51W, altitud: 147 m

Observación

El informe se hizo hace 8 minutos, a las 22:35 UTC
Viento 9 kt del oeste-suroeste con ráfagas de 15 kt
Temperatura 10°C
Humedad 66%
Presión 1015 hPa
Visibilidad: 16.1 km
Escasas nubes a una altura de 2600 ft
Escasas nubes a una altura de 3000 ft
Cielo cubierto a una altura de 4500 ft

METAR: KJFX 242235Z AUTO 24009G15KT 10SM FEW026 FEW030 OVC045 10/04 A2998 RMK AO2

Hora: 16:43 (22:43 UTC)


TAF: falta

Observaciones y pronósticos meteorológicos de más de 4000 aeropuertos (mensajes METAR y TAF).

Los puntos amarillos y rojos representan las estaciones disponibles.

Ponga el ratón en el punto deseado para ver el nombre de la estación.

Haga clic para ver las observaciones y los pronósticos meteorológicos.

Para cambiar el mapa : haga clic en los botones verdes con una cruz de color negro para hacer un zoom, en el botón verde con un guión para alejar o en las flechas verdes para mapas adyacentes.


METAR-TAF: